createdAt,value
2018-08-17T00:05:44.053Z,8.90
2018-08-17T00:21:18.185Z,8.73
2018-08-17T00:36:52.942Z,9.20
2018-08-17T00:52:27.409Z,9.47
2018-08-17T01:08:02.066Z,9.50
2018-08-17T01:23:36.674Z,9.93
2018-08-17T01:39:11.452Z,9.70
2018-08-17T01:54:45.120Z,9.20
2018-08-17T02:10:19.947Z,9.53
2018-08-17T02:25:54.920Z,9.23
2018-08-17T02:41:29.368Z,9.10
2018-08-17T02:57:04.353Z,9.60
2018-08-17T03:12:38.644Z,9.90
2018-08-17T03:28:13.322Z,9.77
2018-08-17T03:43:47.833Z,9.40
2018-08-17T03:59:22.512Z,8.53
2018-08-17T04:14:55.960Z,8.80
2018-08-17T04:30:30.366Z,8.37
2018-08-17T04:46:04.770Z,9.63
2018-08-17T05:17:36.084Z,9.67
2018-08-17T05:33:10.476Z,12.43
2018-08-17T05:48:44.602Z,9.53
2018-08-17T06:04:18.214Z,6.30
2018-08-17T06:19:52.818Z,4.97
2018-08-17T06:35:28.773Z,4.67
2018-08-17T06:51:03.212Z,4.60
2018-08-17T07:06:37.685Z,4.70
2018-08-17T07:22:11.477Z,4.43
2018-08-17T07:37:45.772Z,4.90
2018-08-17T07:53:20.035Z,5.30
2018-08-17T08:08:54.361Z,4.40
2018-08-17T08:24:28.721Z,4.55
2018-08-17T08:40:03.313Z,4.60
2018-08-17T08:55:36.754Z,4.00
2018-08-17T09:11:11.300Z,4.40
2018-08-17T09:26:45.658Z,4.63
2018-08-17T09:42:20.747Z,5.75
2018-08-17T09:57:55.739Z,4.87
2018-08-17T10:13:30.260Z,5.07
2018-08-17T10:29:04.596Z,4.10
2018-08-17T10:44:39.145Z,4.27
2018-08-17T11:00:13.723Z,4.00
2018-08-17T11:15:48.175Z,3.37
2018-08-17T11:31:23.706Z,7.00
2018-08-17T11:46:57.918Z,8.57
2018-08-17T12:02:32.519Z,7.47
2018-08-17T12:18:07.028Z,6.10
2018-08-17T12:33:49.629Z,7.97
2018-08-17T12:49:24.351Z,6.20
2018-08-17T13:04:58.432Z,5.80
2018-08-17T13:20:32.650Z,5.20
2018-08-17T13:36:07.165Z,4.60
2018-08-17T13:51:40.260Z,5.13
2018-08-17T14:07:14.758Z,4.20
2018-08-17T14:23:04.368Z,2.40
2018-08-17T14:38:47.198Z,2.70
2018-08-17T14:54:21.663Z,2.33
2018-08-17T15:09:56.319Z,3.43
2018-08-17T15:25:30.500Z,3.50
2018-08-17T15:41:05.336Z,4.27
2018-08-17T15:56:39.955Z,4.40
2018-08-17T16:12:14.256Z,4.87
2018-08-17T16:27:49.242Z,4.27
2018-08-17T16:43:23.511Z,4.70
2018-08-17T16:58:58.049Z,4.47
2018-08-17T17:14:31.981Z,4.93
2018-08-17T17:30:06.909Z,5.77
2018-08-17T17:45:41.575Z,6.30
2018-08-17T18:01:17.026Z,7.77
2018-08-17T18:16:51.295Z,9.20
2018-08-17T18:32:26.059Z,9.13
2018-08-17T18:47:59.754Z,9.93
2018-08-17T19:03:33.886Z,10.57
2018-08-17T19:19:08.102Z,10.17
2018-08-17T19:34:43.474Z,10.37
2018-08-17T19:50:18.088Z,12.17
2018-08-17T20:05:52.693Z,12.40
2018-08-17T20:21:27.215Z,12.40
2018-08-17T20:37:00.903Z,12.40
2018-08-17T20:52:33.918Z,11.93
2018-08-17T21:08:08.277Z,11.73
2018-08-17T21:23:41.663Z,13.10
2018-08-17T21:39:47.771Z,12.70
2018-08-17T21:55:22.436Z,10.37
2018-08-17T22:10:56.782Z,11.37
2018-08-17T22:26:31.416Z,12.87
2018-08-17T22:42:06.268Z,13.53
2018-08-17T22:57:40.530Z,14.07
2018-08-17T23:13:14.454Z,14.27
2018-08-17T23:28:48.030Z,13.63
2018-08-17T23:44:22.538Z,14.87
2018-08-17T23:59:56.846Z,14.53
